sensor_id;sensor_type;location;lat;lon;timestamp;pressure;altitude;pressure_sealevel;temperature
69590;BMP180;56792;50.644;17.984;2024-02-26T00:01:55;98607.20;;;5.30
69590;BMP180;56792;50.644;17.984;2024-02-26T00:04:27;98605.40;;;5.30
69590;BMP180;56792;50.644;17.984;2024-02-26T00:06:58;98601.00;;;5.20
69590;BMP180;56792;50.644;17.984;2024-02-26T00:09:30;98600.80;;;5.20
69590;BMP180;56792;50.644;17.984;2024-02-26T00:12:01;98602.60;;;5.20
69590;BMP180;56792;50.644;17.984;2024-02-26T00:14:33;98597.20;;;5.10
69590;BMP180;56792;50.644;17.984;2024-02-26T00:17:05;98602.20;;;5.08
69590;BMP180;56792;50.644;17.984;2024-02-26T00:19:38;98598.00;;;5.00
69590;BMP180;56792;50.644;17.984;2024-02-26T00:22:10;98602.80;;;5.00
69590;BMP180;56792;50.644;17.984;2024-02-26T00:24:43;98608.00;;;5.00
69590;BMP180;56792;50.644;17.984;2024-02-26T00:27:14;98603.00;;;4.90
69590;BMP180;56792;50.644;17.984;2024-02-26T00:29:46;98602.00;;;4.82
69590;BMP180;56792;50.644;17.984;2024-02-26T00:32:17;98597.80;;;4.80
69590;BMP180;56792;50.644;17.984;2024-02-26T00:34:49;98601.00;;;4.74
69590;BMP180;56792;50.644;17.984;2024-02-26T00:37:21;98591.80;;;4.70
69590;BMP180;56792;50.644;17.984;2024-02-26T00:39:53;98592.00;;;4.70
69590;BMP180;56792;50.644;17.984;2024-02-26T00:42:24;98594.40;;;4.70
69590;BMP180;56792;50.644;17.984;2024-02-26T00:44:56;98593.40;;;4.60
69590;BMP180;56792;50.644;17.984;2024-02-26T00:47:27;98589.60;;;4.54
69590;BMP180;56792;50.644;17.984;2024-02-26T00:49:59;98593.00;;;4.50
69590;BMP180;56792;50.644;17.984;2024-02-26T00:52:30;98586.80;;;4.40
69590;BMP180;56792;50.644;17.984;2024-02-26T00:55:03;98588.60;;;4.30
69590;BMP180;56792;50.644;17.984;2024-02-26T00:57:34;98589.20;;;4.30
69590;BMP180;56792;50.644;17.984;2024-02-26T01:00:08;98585.60;;;4.30
69590;BMP180;56792;50.644;17.984;2024-02-26T01:02:40;98585.60;;;4.20
69590;BMP180;56792;50.644;17.984;2024-02-26T01:05:12;98584.00;;;4.10
69590;BMP180;56792;50.644;17.984;2024-02-26T01:07:43;98580.40;;;4.10
69590;BMP180;56792;50.644;17.984;2024-02-26T01:10:15;98579.80;;;4.00
69590;BMP180;56792;50.644;17.984;2024-02-26T01:12:46;98577.40;;;3.90
69590;BMP180;56792;50.644;17.984;2024-02-26T01:15:19;98572.40;;;3.90
69590;BMP180;56792;50.644;17.984;2024-02-26T01:17:53;98573.20;;;3.80
69590;BMP180;56792;50.644;17.984;2024-02-26T01:20:25;98571.20;;;3.80
69590;BMP180;56792;50.644;17.984;2024-02-26T01:22:56;98573.80;;;3.80
69590;BMP180;56792;50.644;17.984;2024-02-26T01:25:28;98565.40;;;3.70
69590;BMP180;56792;50.644;17.984;2024-02-26T01:27:59;98566.20;;;3.60
69590;BMP180;56792;50.644;17.984;2024-02-26T01:30:31;98565.60;;;3.60
69590;BMP180;56792;50.644;17.984;2024-02-26T01:33:02;98562.60;;;3.50
69590;BMP180;56792;50.644;17.984;2024-02-26T01:35:34;98563.20;;;3.50
69590;BMP180;56792;50.644;17.984;2024-02-26T01:38:06;98562.80;;;3.50
69590;BMP180;56792;50.644;17.984;2024-02-26T01:40:38;98562.80;;;3.40
69590;BMP180;56792;50.644;17.984;2024-02-26T01:43:09;98559.60;;;3.40
69590;BMP180;56792;50.644;17.984;2024-02-26T01:45:40;98558.00;;;3.30
69590;BMP180;56792;50.644;17.984;2024-02-26T01:48:12;98558.00;;;3.20
69590;BMP180;56792;50.644;17.984;2024-02-26T01:50:44;98555.00;;;3.20
69590;BMP180;56792;50.644;17.984;2024-02-26T01:53:17;98551.80;;;3.20
69590;BMP180;56792;50.644;17.984;2024-02-26T01:55:50;98551.00;;;3.14
69590;BMP180;56792;50.644;17.984;2024-02-26T01:58:22;98556.80;;;3.10
69590;BMP180;56792;50.644;17.984;2024-02-26T02:00:54;98555.60;;;3.10
69590;BMP180;56792;50.644;17.984;2024-02-26T02:03:26;98557.20;;;3.06
69590;BMP180;56792;50.644;17.984;2024-02-26T02:05:57;98558.40;;;3.00
69590;BMP180;56792;50.644;17.984;2024-02-26T02:08:30;98557.40;;;3.00
69590;BMP180;56792;50.644;17.984;2024-02-26T02:11:02;98550.80;;;2.90
69590;BMP180;56792;50.644;17.984;2024-02-26T02:13:34;98554.40;;;2.90
69590;BMP180;56792;50.644;17.984;2024-02-26T02:16:06;98550.40;;;2.80
69590;BMP180;56792;50.644;17.984;2024-02-26T02:18:37;98553.20;;;2.80
69590;BMP180;56792;50.644;17.984;2024-02-26T02:21:09;98551.60;;;2.80
69590;BMP180;56792;50.644;17.984;2024-02-26T02:23:41;98554.00;;;2.80
69590;BMP180;56792;50.644;17.984;2024-02-26T02:26:17;98555.60;;;2.80
69590;BMP180;56792;50.644;17.984;2024-02-26T02:28:49;98554.80;;;2.72
69590;BMP180;56792;50.644;17.984;2024-02-26T02:31:21;98554.60;;;2.70
69590;BMP180;56792;50.644;17.984;2024-02-26T02:33:53;98552.00;;;2.70
69590;BMP180;56792;50.644;17.984;2024-02-26T02:36:25;98552.40;;;2.68
69590;BMP180;56792;50.644;17.984;2024-02-26T02:38:56;98554.80;;;2.60
69590;BMP180;56792;50.644;17.984;2024-02-26T02:41:28;98557.40;;;2.58
69590;BMP180;56792;50.644;17.984;2024-02-26T02:44:00;98556.40;;;2.50
69590;BMP180;56792;50.644;17.984;2024-02-26T02:46:32;98553.60;;;2.50
69590;BMP180;56792;50.644;17.984;2024-02-26T02:49:07;98553.60;;;2.50
69590;BMP180;56792;50.644;17.984;2024-02-26T02:51:39;98555.00;;;2.50
69590;BMP180;56792;50.644;17.984;2024-02-26T02:54:11;98559.60;;;2.48
69590;BMP180;56792;50.644;17.984;2024-02-26T02:56:42;98563.00;;;2.40
69590;BMP180;56792;50.644;17.984;2024-02-26T02:59:14;98559.40;;;2.40
69590;BMP180;56792;50.644;17.984;2024-02-26T03:01:45;98558.80;;;2.40
69590;BMP180;56792;50.644;17.984;2024-02-26T03:04:17;98556.80;;;2.30
69590;BMP180;56792;50.644;17.984;2024-02-26T03:06:48;98559.60;;;2.30
69590;BMP180;56792;50.644;17.984;2024-02-26T03:09:20;98558.20;;;2.30
69590;BMP180;56792;50.644;17.984;2024-02-26T03:11:51;98554.60;;;2.30
69590;BMP180;56792;50.644;17.984;2024-02-26T03:14:23;98551.20;;;2.30
69590;BMP180;56792;50.644;17.984;2024-02-26T03:16:57;98550.80;;;2.30
69590;BMP180;56792;50.644;17.984;2024-02-26T03:19:29;98553.20;;;2.30
69590;BMP180;56792;50.644;17.984;2024-02-26T03:22:00;98556.60;;;2.30
69590;BMP180;56792;50.644;17.984;2024-02-26T03:24:32;98553.40;;;2.20
69590;BMP180;56792;50.644;17.984;2024-02-26T03:27:04;98553.60;;;2.20
69590;BMP180;56792;50.644;17.984;2024-02-26T03:29:39;98549.60;;;2.20
69590;BMP180;56792;50.644;17.984;2024-02-26T03:32:11;98548.20;;;2.20
69590;BMP180;56792;50.644;17.984;2024-02-26T03:34:43;98547.40;;;2.10
69590;BMP180;56792;50.644;17.984;2024-02-26T03:37:14;98547.20;;;2.10
69590;BMP180;56792;50.644;17.984;2024-02-26T03:39:46;98552.20;;;2.00
69590;BMP180;56792;50.644;17.984;2024-02-26T03:42:18;98551.20;;;2.00
69590;BMP180;56792;50.644;17.984;2024-02-26T03:44:50;98548.60;;;2.00
69590;BMP180;56792;50.644;17.984;2024-02-26T03:47:21;98551.60;;;2.00
69590;BMP180;56792;50.644;17.984;2024-02-26T03:49:53;98548.80;;;2.00
69590;BMP180;56792;50.644;17.984;2024-02-26T03:52:24;98548.60;;;2.00
69590;BMP180;56792;50.644;17.984;2024-02-26T03:54:56;98546.20;;;2.00
69590;BMP180;56792;50.644;17.984;2024-02-26T03:57:27;98543.20;;;2.00
69590;BMP180;56792;50.644;17.984;2024-02-26T03:59:59;98545.00;;;1.90
69590;BMP180;56792;50.644;17.984;2024-02-26T04:02:30;98549.60;;;1.90
69590;BMP180;56792;50.644;17.984;2024-02-26T04:05:02;98548.40;;;1.90
69590;BMP180;56792;50.644;17.984;2024-02-26T04:07:34;98548.80;;;1.90
69590;BMP180;56792;50.644;17.984;2024-02-26T04:10:10;98551.60;;;1.90
69590;BMP180;56792;50.644;17.984;2024-02-26T04:12:43;98545.80;;;1.90
69590;BMP180;56792;50.644;17.984;2024-02-26T04:15:15;98548.00;;;1.90
69590;BMP180;56792;50.644;17.984;2024-02-26T04:17:47;98550.00;;;1.90
69590;BMP180;56792;50.644;17.984;2024-02-26T04:20:19;98550.20;;;1.90
69590;BMP180;56792;50.644;17.984;2024-02-26T04:22:50;98547.20;;;1.90
69590;BMP180;56792;50.644;17.984;2024-02-26T04:25:23;98549.60;;;1.90
69590;BMP180;56792;50.644;17.984;2024-02-26T04:27:54;98548.20;;;1.88
69590;BMP180;56792;50.644;17.984;2024-02-26T04:30:26;98545.00;;;1.82
69590;BMP180;56792;50.644;17.984;2024-02-26T04:32:57;98540.20;;;1.80
69590;BMP180;56792;50.644;17.984;2024-02-26T04:35:28;98543.20;;;1.80
69590;BMP180;56792;50.644;17.984;2024-02-26T04:38:00;98543.00;;;1.72
69590;BMP180;56792;50.644;17.984;2024-02-26T04:40:32;98542.00;;;1.70
69590;BMP180;56792;50.644;17.984;2024-02-26T04:43:03;98542.60;;;1.70
69590;BMP180;56792;50.644;17.984;2024-02-26T04:45:35;98540.00;;;1.60
69590;BMP180;56792;50.644;17.984;2024-02-26T04:48:08;98536.20;;;1.60
69590;BMP180;56792;50.644;17.984;2024-02-26T04:50:40;98537.00;;;1.60
69590;BMP180;56792;50.644;17.984;2024-02-26T04:53:11;98543.20;;;1.60
69590;BMP180;56792;50.644;17.984;2024-02-26T04:55:43;98541.40;;;1.60
69590;BMP180;56792;50.644;17.984;2024-02-26T04:58:14;98540.60;;;1.60
69590;BMP180;56792;50.644;17.984;2024-02-26T05:00:46;98534.80;;;1.60
69590;BMP180;56792;50.644;17.984;2024-02-26T05:03:17;98535.20;;;1.60
69590;BMP180;56792;50.644;17.984;2024-02-26T05:05:49;98539.00;;;1.60
69590;BMP180;56792;50.644;17.984;2024-02-26T05:08:20;98537.00;;;1.60
69590;BMP180;56792;50.644;17.984;2024-02-26T05:10:52;98540.80;;;1.58
69590;BMP180;56792;50.644;17.984;2024-02-26T05:13:23;98539.40;;;1.50
69590;BMP180;56792;50.644;17.984;2024-02-26T05:15:55;98540.60;;;1.50
69590;BMP180;56792;50.644;17.984;2024-02-26T05:18:26;98547.80;;;1.50
69590;BMP180;56792;50.644;17.984;2024-02-26T05:20:58;98550.00;;;1.50
69590;BMP180;56792;50.644;17.984;2024-02-26T05:23:30;98550.20;;;1.58
69590;BMP180;56792;50.644;17.984;2024-02-26T05:26:01;98549.40;;;1.50
69590;BMP180;56792;50.644;17.984;2024-02-26T05:28:33;98551.60;;;1.50
69590;BMP180;56792;50.644;17.984;2024-02-26T05:31:05;98550.80;;;1.50
69590;BMP180;56792;50.644;17.984;2024-02-26T05:33:36;98553.00;;;1.60
69590;BMP180;56792;50.644;17.984;2024-02-26T05:36:09;98548.80;;;1.66
69590;BMP180;56792;50.644;17.984;2024-02-26T05:38:40;98557.60;;;1.70
69590;BMP180;56792;50.644;17.984;2024-02-26T05:41:12;98559.00;;;1.76
69590;BMP180;56792;50.644;17.984;2024-02-26T05:43:43;98553.80;;;1.80
69590;BMP180;56792;50.644;17.984;2024-02-26T05:46:17;98554.80;;;1.88
69590;BMP180;56792;50.644;17.984;2024-02-26T05:48:50;98555.40;;;1.94
69590;BMP180;56792;50.644;17.984;2024-02-26T05:51:22;98556.60;;;2.12
69590;BMP180;56792;50.644;17.984;2024-02-26T05:53:54;98552.00;;;2.26
69590;BMP180;56792;50.644;17.984;2024-02-26T05:56:25;98555.40;;;2.38
69590;BMP180;56792;50.644;17.984;2024-02-26T05:58:57;98557.40;;;2.44
69590;BMP180;56792;50.644;17.984;2024-02-26T06:01:28;98558.00;;;2.50
69590;BMP180;56792;50.644;17.984;2024-02-26T06:04:00;98555.20;;;2.62
69590;BMP180;56792;50.644;17.984;2024-02-26T06:06:31;98555.00;;;2.74
69590;BMP180;56792;50.644;17.984;2024-02-26T06:09:03;98561.00;;;2.84
69590;BMP180;56792;50.644;17.984;2024-02-26T06:11:35;98562.20;;;2.90
69590;BMP180;56792;50.644;17.984;2024-02-26T06:14:06;98569.40;;;2.92
69590;BMP180;56792;50.644;17.984;2024-02-26T06:16:38;98570.80;;;3.00
69590;BMP180;56792;50.644;17.984;2024-02-26T06:19:10;98571.00;;;3.00
69590;BMP180;56792;50.644;17.984;2024-02-26T06:21:41;98572.40;;;3.10
69590;BMP180;56792;50.644;17.984;2024-02-26T06:24:13;98571.80;;;3.20
69590;BMP180;56792;50.644;17.984;2024-02-26T06:26:44;98582.20;;;3.20
69590;BMP180;56792;50.644;17.984;2024-02-26T06:29:16;98579.80;;;3.30
69590;BMP180;56792;50.644;17.984;2024-02-26T06:31:47;98584.60;;;3.30
69590;BMP180;56792;50.644;17.984;2024-02-26T06:34:20;98581.60;;;3.40
69590;BMP180;56792;50.644;17.984;2024-02-26T06:36:52;98590.20;;;3.50
69590;BMP180;56792;50.644;17.984;2024-02-26T06:39:24;98586.00;;;3.52
69590;BMP180;56792;50.644;17.984;2024-02-26T06:41:56;98592.40;;;3.60
69590;BMP180;56792;50.644;17.984;2024-02-26T06:44:30;98588.40;;;3.70
69590;BMP180;56792;50.644;17.984;2024-02-26T06:47:03;98596.20;;;3.88
69590;BMP180;56792;50.644;17.984;2024-02-26T06:49:34;98598.00;;;3.98
69590;BMP180;56792;50.644;17.984;2024-02-26T06:52:06;98600.60;;;4.10
69590;BMP180;56792;50.644;17.984;2024-02-26T06:54:38;98602.20;;;4.20
69590;BMP180;56792;50.644;17.984;2024-02-26T06:57:09;98594.20;;;4.20
69590;BMP180;56792;50.644;17.984;2024-02-26T06:59:41;98591.40;;;4.30
69590;BMP180;56792;50.644;17.984;2024-02-26T07:02:17;98594.00;;;4.40
69590;BMP180;56792;50.644;17.984;2024-02-26T07:04:48;98600.60;;;4.50
69590;BMP180;56792;50.644;17.984;2024-02-26T07:07:20;98604.00;;;4.60
69590;BMP180;56792;50.644;17.984;2024-02-26T07:09:54;98602.80;;;4.68
69590;BMP180;56792;50.644;17.984;2024-02-26T07:12:26;98601.60;;;4.70
69590;BMP180;56792;50.644;17.984;2024-02-26T07:14:57;98603.80;;;4.80
69590;BMP180;56792;50.644;17.984;2024-02-26T07:17:29;98602.40;;;4.80
69590;BMP180;56792;50.644;17.984;2024-02-26T07:20:00;98607.20;;;4.88
69590;BMP180;56792;50.644;17.984;2024-02-26T07:22:34;98607.80;;;4.90
69590;BMP180;56792;50.644;17.984;2024-02-26T07:25:07;98610.80;;;5.00
69590;BMP180;56792;50.644;17.984;2024-02-26T07:27:42;98609.60;;;5.00
69590;BMP180;56792;50.644;17.984;2024-02-26T07:30:16;98606.80;;;5.10
69590;BMP180;56792;50.644;17.984;2024-02-26T07:32:47;98606.40;;;5.12
69590;BMP180;56792;50.644;17.984;2024-02-26T07:35:19;98606.00;;;5.20
69590;BMP180;56792;50.644;17.984;2024-02-26T07:37:52;98603.20;;;5.20
69590;BMP180;56792;50.644;17.984;2024-02-26T07:40:23;98603.60;;;5.30
69590;BMP180;56792;50.644;17.984;2024-02-26T07:42:55;98607.80;;;5.36
69590;BMP180;56792;50.644;17.984;2024-02-26T07:45:27;98605.00;;;5.40
69590;BMP180;56792;50.644;17.984;2024-02-26T07:47:58;98605.40;;;5.42
69590;BMP180;56792;50.644;17.984;2024-02-26T07:50:30;98603.60;;;5.50
69590;BMP180;56792;50.644;17.984;2024-02-26T07:53:01;98604.20;;;5.60
69590;BMP180;56792;50.644;17.984;2024-02-26T07:55:33;98609.00;;;5.60
69590;BMP180;56792;50.644;17.984;2024-02-26T07:58:05;98608.60;;;5.70
69590;BMP180;56792;50.644;17.984;2024-02-26T08:00:36;98609.40;;;5.70
69590;BMP180;56792;50.644;17.984;2024-02-26T08:03:08;98605.60;;;5.78
69590;BMP180;56792;50.644;17.984;2024-02-26T08:05:39;98606.80;;;5.80
69590;BMP180;56792;50.644;17.984;2024-02-26T08:08:12;98607.80;;;5.80
69590;BMP180;56792;50.644;17.984;2024-02-26T08:10:44;98609.80;;;5.80
69590;BMP180;56792;50.644;17.984;2024-02-26T08:13:16;98605.80;;;5.90
69590;BMP180;56792;50.644;17.984;2024-02-26T08:15:47;98606.80;;;6.00
69590;BMP180;56792;50.644;17.984;2024-02-26T08:18:19;98614.20;;;6.10
69590;BMP180;56792;50.644;17.984;2024-02-26T08:20:51;98611.20;;;6.20
69590;BMP180;56792;50.644;17.984;2024-02-26T08:23:23;98611.60;;;6.30
69590;BMP180;56792;50.644;17.984;2024-02-26T08:25:55;98612.40;;;6.40
69590;BMP180;56792;50.644;17.984;2024-02-26T08:28:26;98609.00;;;6.60
69590;BMP180;56792;50.644;17.984;2024-02-26T08:30:58;98613.00;;;6.80
69590;BMP180;56792;50.644;17.984;2024-02-26T08:33:29;98608.40;;;6.90
69590;BMP180;56792;50.644;17.984;2024-02-26T08:36:05;98613.40;;;7.10
69590;BMP180;56792;50.644;17.984;2024-02-26T08:38:37;98614.20;;;7.30
69590;BMP180;56792;50.644;17.984;2024-02-26T08:41:08;98616.60;;;7.52
69590;BMP180;56792;50.644;17.984;2024-02-26T08:43:40;98613.00;;;7.68
69590;BMP180;56792;50.644;17.984;2024-02-26T08:46:13;98612.00;;;7.80
69590;BMP180;56792;50.644;17.984;2024-02-26T08:48:45;98606.00;;;8.00
69590;BMP180;56792;50.644;17.984;2024-02-26T08:51:16;98613.60;;;8.20
69590;BMP180;56792;50.644;17.984;2024-02-26T08:53:48;98606.80;;;8.30
69590;BMP180;56792;50.644;17.984;2024-02-26T08:56:20;98609.60;;;8.56
69590;BMP180;56792;50.644;17.984;2024-02-26T08:58:52;98605.80;;;8.70
69590;BMP180;56792;50.644;17.984;2024-02-26T09:01:26;98611.40;;;8.80
69590;BMP180;56792;50.644;17.984;2024-02-26T09:03:58;98612.60;;;8.96
69590;BMP180;56792;50.644;17.984;2024-02-26T09:06:29;98610.40;;;9.10
69590;BMP180;56792;50.644;17.984;2024-02-26T09:09:01;98614.40;;;9.30
69590;BMP180;56792;50.644;17.984;2024-02-26T09:11:33;98609.80;;;9.60
69590;BMP180;56792;50.644;17.984;2024-02-26T09:14:05;98613.00;;;9.70
69590;BMP180;56792;50.644;17.984;2024-02-26T09:16:37;98609.40;;;9.90
69590;BMP180;56792;50.644;17.984;2024-02-26T09:19:08;98612.20;;;10.04
69590;BMP180;56792;50.644;17.984;2024-02-26T09:21:43;98618.60;;;10.22
69590;BMP180;56792;50.644;17.984;2024-02-26T09:24:16;98615.80;;;10.30
69590;BMP180;56792;50.644;17.984;2024-02-26T09:26:47;98618.40;;;10.40
69590;BMP180;56792;50.644;17.984;2024-02-26T09:29:19;98619.60;;;10.56
69590;BMP180;56792;50.644;17.984;2024-02-26T09:31:50;98613.60;;;10.70
69590;BMP180;56792;50.644;17.984;2024-02-26T09:34:22;98615.20;;;10.90
69590;BMP180;56792;50.644;17.984;2024-02-26T09:36:53;98617.20;;;11.08
69590;BMP180;56792;50.644;17.984;2024-02-26T09:39:25;98618.60;;;11.20
69590;BMP180;56792;50.644;17.984;2024-02-26T09:41:58;98619.40;;;11.48
69590;BMP180;56792;50.644;17.984;2024-02-26T09:44:32;98622.00;;;11.70
69590;BMP180;56792;50.644;17.984;2024-02-26T09:47:09;98619.20;;;11.80
69590;BMP180;56792;50.644;17.984;2024-02-26T09:49:43;98627.00;;;11.80
69590;BMP180;56792;50.644;17.984;2024-02-26T09:52:16;98627.40;;;11.90
69590;BMP180;56792;50.644;17.984;2024-02-26T09:54:50;98627.20;;;12.10
69590;BMP180;56792;50.644;17.984;2024-02-26T09:57:22;98623.20;;;12.28
69590;BMP180;56792;50.644;17.984;2024-02-26T09:59:59;98627.60;;;12.40
69590;BMP180;56792;50.644;17.984;2024-02-26T10:02:37;98624.00;;;12.58
69590;BMP180;56792;50.644;17.984;2024-02-26T10:05:14;98625.40;;;12.70
69590;BMP180;56792;50.644;17.984;2024-02-26T10:07:47;98624.80;;;12.80
69590;BMP180;56792;50.644;17.984;2024-02-26T10:10:20;98616.80;;;12.90
69590;BMP180;56792;50.644;17.984;2024-02-26T10:12:52;98628.00;;;12.90
69590;BMP180;56792;50.644;17.984;2024-02-26T10:15:23;98628.60;;;13.00
69590;BMP180;56792;50.644;17.984;2024-02-26T10:17:55;98631.20;;;13.10
69590;BMP180;56792;50.644;17.984;2024-02-26T10:20:27;98634.60;;;13.02
69590;BMP180;56792;50.644;17.984;2024-02-26T10:23:03;98640.00;;;13.10
69590;BMP180;56792;50.644;17.984;2024-02-26T10:25:35;98637.00;;;13.00
69590;BMP180;56792;50.644;17.984;2024-02-26T10:28:08;98638.80;;;12.90
69590;BMP180;56792;50.644;17.984;2024-02-26T10:30:41;98636.40;;;12.90
69590;BMP180;56792;50.644;17.984;2024-02-26T10:33:13;98641.60;;;13.08
69590;BMP180;56792;50.644;17.984;2024-02-26T10:35:50;98632.00;;;13.30
69590;BMP180;56792;50.644;17.984;2024-02-26T10:38:21;98630.60;;;13.40
69590;BMP180;56792;50.644;17.984;2024-02-26T10:40:54;98636.00;;;13.50
69590;BMP180;56792;50.644;17.984;2024-02-26T10:43:26;98627.60;;;13.60
69590;BMP180;56792;50.644;17.984;2024-02-26T10:45:59;98623.20;;;13.60
69590;BMP180;56792;50.644;17.984;2024-02-26T10:48:31;98627.40;;;13.90
69590;BMP180;56792;50.644;17.984;2024-02-26T10:51:03;98618.00;;;13.94
69590;BMP180;56792;50.644;17.984;2024-02-26T10:53:37;98621.20;;;13.90
69590;BMP180;56792;50.644;17.984;2024-02-26T10:56:11;98627.40;;;14.00
69590;BMP180;56792;50.644;17.984;2024-02-26T10:58:46;98619.20;;;13.90
69590;BMP180;56792;50.644;17.984;2024-02-26T11:01:19;98620.20;;;13.70
69590;BMP180;56792;50.644;17.984;2024-02-26T11:03:54;98621.60;;;13.60
69590;BMP180;56792;50.644;17.984;2024-02-26T11:06:27;98616.20;;;13.40
69590;BMP180;56792;50.644;17.984;2024-02-26T11:09:00;98604.20;;;13.30
69590;BMP180;56792;50.644;17.984;2024-02-26T11:11:33;98604.60;;;13.30
69590;BMP180;56792;50.644;17.984;2024-02-26T11:14:06;98601.80;;;13.50
69590;BMP180;56792;50.644;17.984;2024-02-26T11:16:41;98607.40;;;13.70
69590;BMP180;56792;50.644;17.984;2024-02-26T11:19:13;98603.40;;;13.62
69590;BMP180;56792;50.644;17.984;2024-02-26T11:21:45;98597.00;;;13.70
69590;BMP180;56792;50.644;17.984;2024-02-26T11:24:18;98605.80;;;13.90
69590;BMP180;56792;50.644;17.984;2024-02-26T11:26:55;98602.20;;;14.32
69590;BMP180;56792;50.644;17.984;2024-02-26T11:29:37;98603.20;;;14.54
69590;BMP180;56792;50.644;17.984;2024-02-26T11:32:09;98592.80;;;14.80
69590;BMP180;56792;50.644;17.984;2024-02-26T11:34:41;98589.20;;;15.00
69590;BMP180;56792;50.644;17.984;2024-02-26T11:37:16;98592.40;;;15.00
69590;BMP180;56792;50.644;17.984;2024-02-26T11:39:48;98597.00;;;14.90
69590;BMP180;56792;50.644;17.984;2024-02-26T11:42:27;98602.80;;;14.80
69590;BMP180;56792;50.644;17.984;2024-02-26T11:45:00;98602.60;;;14.70
69590;BMP180;56792;50.644;17.984;2024-02-26T11:47:36;98589.60;;;14.60
69590;BMP180;56792;50.644;17.984;2024-02-26T11:50:39;98592.00;;;14.50
69590;BMP180;56792;50.644;17.984;2024-02-26T11:53:27;98589.60;;;14.68
69590;BMP180;56792;50.644;17.984;2024-02-26T11:56:25;98591.00;;;14.90
69590;BMP180;56792;50.644;17.984;2024-02-26T11:59:09;98584.00;;;14.88
69590;BMP180;56792;50.644;17.984;2024-02-26T12:01:50;98580.60;;;14.80
69590;BMP180;56792;50.644;17.984;2024-02-26T12:04:26;98581.20;;;14.80
69590;BMP180;56792;50.644;17.984;2024-02-26T12:07:02;98579.80;;;15.00
69590;BMP180;56792;50.644;17.984;2024-02-26T12:09:42;98570.60;;;14.90
69590;BMP180;56792;50.644;17.984;2024-02-26T12:12:19;98572.80;;;15.06
69590;BMP180;56792;50.644;17.984;2024-02-26T12:14:58;98571.00;;;15.16
69590;BMP180;56792;50.644;17.984;2024-02-26T12:17:29;98567.60;;;15.20
69590;BMP180;56792;50.644;17.984;2024-02-26T12:20:12;98564.60;;;15.30
69590;BMP180;56792;50.644;17.984;2024-02-26T12:22:46;98561.80;;;15.40
69590;BMP180;56792;50.644;17.984;2024-02-26T12:25:22;98564.20;;;15.40
69590;BMP180;56792;50.644;17.984;2024-02-26T12:27:54;98562.80;;;15.20
69590;BMP180;56792;50.644;17.984;2024-02-26T12:30:27;98563.60;;;15.30
69590;BMP180;56792;50.644;17.984;2024-02-26T12:33:05;98566.20;;;15.20
69590;BMP180;56792;50.644;17.984;2024-02-26T12:35:38;98570.40;;;15.04
69590;BMP180;56792;50.644;17.984;2024-02-26T12:38:11;98571.20;;;14.94
69590;BMP180;56792;50.644;17.984;2024-02-26T12:40:44;98571.20;;;15.10
69590;BMP180;56792;50.644;17.984;2024-02-26T12:43:16;98570.60;;;15.40
69590;BMP180;56792;50.644;17.984;2024-02-26T12:45:48;98571.60;;;15.30
69590;BMP180;56792;50.644;17.984;2024-02-26T12:48:20;98567.20;;;15.00
69590;BMP180;56792;50.644;17.984;2024-02-26T12:50:52;98572.40;;;14.98
69590;BMP180;56792;50.644;17.984;2024-02-26T12:53:24;98562.40;;;14.80
69590;BMP180;56792;50.644;17.984;2024-02-26T12:55:59;98566.00;;;14.78
69590;BMP180;56792;50.644;17.984;2024-02-26T12:58:32;98560.40;;;14.60
69590;BMP180;56792;50.644;17.984;2024-02-26T13:01:05;98570.20;;;14.70
69590;BMP180;56792;50.644;17.984;2024-02-26T13:03:38;98563.60;;;14.78
69590;BMP180;56792;50.644;17.984;2024-02-26T13:06:10;98571.20;;;14.74
69590;BMP180;56792;50.644;17.984;2024-02-26T13:08:42;98574.60;;;14.80
69590;BMP180;56792;50.644;17.984;2024-02-26T13:11:14;98565.40;;;14.68
69590;BMP180;56792;50.644;17.984;2024-02-26T13:13:50;98560.20;;;14.70
69590;BMP180;56792;50.644;17.984;2024-02-26T13:16:25;98564.80;;;14.98
69590;BMP180;56792;50.644;17.984;2024-02-26T13:18:56;98565.20;;;15.10
69590;BMP180;56792;50.644;17.984;2024-02-26T13:21:28;98568.60;;;15.10
69590;BMP180;56792;50.644;17.984;2024-02-26T13:23:59;98561.40;;;15.00
69590;BMP180;56792;50.644;17.984;2024-02-26T13:26:31;98563.80;;;15.08
69590;BMP180;56792;50.644;17.984;2024-02-26T13:29:05;98563.80;;;14.90
69590;BMP180;56792;50.644;17.984;2024-02-26T13:31:43;98569.00;;;15.00
69590;BMP180;56792;50.644;17.984;2024-02-26T13:34:24;98564.60;;;15.10
69590;BMP180;56792;50.644;17.984;2024-02-26T13:36:57;98562.40;;;15.20
69590;BMP180;56792;50.644;17.984;2024-02-26T13:39:29;98564.60;;;15.10
69590;BMP180;56792;50.644;17.984;2024-02-26T13:42:01;98565.40;;;15.10
69590;BMP180;56792;50.644;17.984;2024-02-26T13:44:32;98564.20;;;15.04
69590;BMP180;56792;50.644;17.984;2024-02-26T13:47:07;98564.60;;;15.10
69590;BMP180;56792;50.644;17.984;2024-02-26T13:49:39;98563.00;;;15.00
69590;BMP180;56792;50.644;17.984;2024-02-26T13:52:10;98562.80;;;15.00
69590;BMP180;56792;50.644;17.984;2024-02-26T13:54:42;98563.60;;;15.00
69590;BMP180;56792;50.644;17.984;2024-02-26T13:57:13;98559.80;;;15.00
69590;BMP180;56792;50.644;17.984;2024-02-26T13:59:45;98564.00;;;15.00
69590;BMP180;56792;50.644;17.984;2024-02-26T14:02:17;98568.40;;;15.10
69590;BMP180;56792;50.644;17.984;2024-02-26T14:04:50;98570.80;;;15.00
69590;BMP180;56792;50.644;17.984;2024-02-26T14:07:21;98569.20;;;14.90
69590;BMP180;56792;50.644;17.984;2024-02-26T14:09:53;98568.60;;;14.90
69590;BMP180;56792;50.644;17.984;2024-02-26T14:12:24;98566.20;;;14.80
69590;BMP180;56792;50.644;17.984;2024-02-26T14:14:56;98560.40;;;14.70
69590;BMP180;56792;50.644;17.984;2024-02-26T14:17:30;98565.40;;;14.60
69590;BMP180;56792;50.644;17.984;2024-02-26T14:20:02;98569.00;;;14.70
69590;BMP180;56792;50.644;17.984;2024-02-26T14:22:34;98574.80;;;14.60
69590;BMP180;56792;50.644;17.984;2024-02-26T14:25:07;98568.60;;;14.60
69590;BMP180;56792;50.644;17.984;2024-02-26T14:27:39;98576.00;;;14.50
69590;BMP180;56792;50.644;17.984;2024-02-26T14:30:13;98573.80;;;14.50
69590;BMP180;56792;50.644;17.984;2024-02-26T14:32:45;98576.20;;;14.40
69590;BMP180;56792;50.644;17.984;2024-02-26T14:35:16;98573.60;;;14.40